Time;durP1;ratioP1;P1;durP2;ratioP2;P2;SDS_P1;SDS_P2;PMS_P1;PMS_P2;Temp;Humidity;BMP_temperature;BMP_pressure;BME280_temperature;BME280_humidity;BME280_pressure;Samples;Min_cycle;Max_cycle;Signal;HPM_P1;HPM_P2
2023/04/02 00:00:08;;;;;;;12.90;9.50;;;;;;;8.98;100.00;98631.49;106244;1285;25229;-65
2023/04/02 00:02:57;;;;;;;11.80;9.50;;;;;;;8.96;100.00;98634.48;106277;1286;25346;-65
2023/04/02 00:05:29;;;;;;;13.50;10.10;;;;;;;8.95;100.00;98634.67;106146;1286;27160;-65
2023/04/02 00:08:02;;;;;;;15.20;11.20;;;;;;;8.91;100.00;98631.88;105937;1286;24234;-66
2023/04/02 00:10:50;;;;;;;12.20;10.20;;;;;;;8.89;100.00;98636.08;106482;1286;24265;-66
2023/04/02 00:13:21;;;;;;;14.40;10.60;;;;;;;8.88;100.00;98632.19;106655;1286;24233;-66
2023/04/02 00:15:50;;;;;;;14.20;10.00;;;;;;;8.85;100.00;98628.86;106658;1286;22523;-66
2023/04/02 00:18:20;;;;;;;14.30;10.50;;;;;;;8.85;100.00;98630.98;106182;1286;25499;-67
2023/04/02 00:21:17;;;;;;;14.30;11.20;;;;;;;8.84;100.00;98631.31;107226;1275;26715;-67
2023/04/02 00:23:46;;;;;;;12.60;10.30;;;;;;;8.83;100.00;98630.12;107282;1275;22520;-66
2023/04/02 00:26:32;;;;;;;14.20;10.40;;;;;;;8.82;100.00;98633.92;107348;1275;22632;-66
2023/04/02 00:29:02;;;;;;;12.30;9.60;;;;;;;8.83;100.00;98633.38;107394;1275;25321;-66
2023/04/02 00:31:37;;;;;;;11.90;9.80;;;;;;;8.80;100.00;98631.07;110448;1275;23071;-65
2023/04/02 00:34:06;;;;;;;13.40;10.30;;;;;;;8.79;100.00;98630.81;110425;1275;22260;-65
2023/04/02 00:36:34;;;;;;;12.60;10.10;;;;;;;8.79;100.00;98631.90;110286;1275;22453;-64
2023/04/02 00:39:07;;;;;;;13.40;10.10;;;;;;;8.81;100.00;98635.36;110447;1275;22282;-65
2023/04/02 00:41:37;;;;;;;12.10;9.80;;;;;;;8.81;100.00;98635.25;110522;1275;22660;-65
2023/04/02 00:44:11;;;;;;;12.70;9.90;;;;;;;8.82;100.00;98636.77;110458;1275;22286;-65
2023/04/02 00:46:48;;;;;;;12.40;9.80;;;;;;;8.83;100.00;98634.46;110437;1275;22171;-65
2023/04/02 00:49:22;;;;;;;16.90;10.70;;;;;;;8.87;100.00;98639.27;110505;1275;22300;-65
2023/04/02 00:52:12;;;;;;;12.60;10.00;;;;;;;8.87;100.00;98639.47;110257;1275;22190;-65
2023/04/02 00:54:50;;;;;;;13.50;10.20;;;;;;;8.87;100.00;98640.61;110357;1275;22280;-65
2023/04/02 00:57:24;;;;;;;14.10;9.60;;;;;;;8.86;100.00;98642.14;106830;1275;24269;-66
2023/04/02 00:59:58;;;;;;;16.30;10.60;;;;;;;8.85;100.00;98641.50;107016;1275;22520;-66
2023/04/02 01:02:31;;;;;;;12.50;9.80;;;;;;;8.84;100.00;98642.87;106916;1275;24247;-65
2023/04/02 01:05:20;;;;;;;14.00;10.00;;;;;;;8.82;100.00;98648.41;106778;1275;22524;-65
2023/04/02 01:08:37;;;;;;;12.10;9.90;;;;;;;8.81;100.00;98646.05;106851;1275;24186;-66
2023/04/02 01:11:40;;;;;;;15.00;10.20;;;;;;;8.78;100.00;98644.72;106304;1275;25922;-65
2023/04/02 01:14:36;;;;;;;13.80;9.60;;;;;;;8.75;100.00;98645.51;106973;1275;25275;-64
2023/04/02 01:17:25;;;;;;;13.80;10.30;;;;;;;8.74;100.00;98642.75;106599;1275;26483;-64
2023/04/02 01:20:18;;;;;;;16.90;10.00;;;;;;;8.75;100.00;98643.83;106946;1274;25937;-65
2023/04/02 01:23:09;;;;;;;13.20;10.00;;;;;;;8.76;100.00;98644.84;106705;1275;25398;-65
2023/04/02 01:26:16;;;;;;;13.40;10.10;;;;;;;8.78;100.00;98644.93;106600;1275;27444;-65
2023/04/02 01:29:00;;;;;;;15.40;10.40;;;;;;;8.79;100.00;98646.23;106557;1275;25389;-65
2023/04/02 01:31:29;;;;;;;14.50;10.00;;;;;;;8.81;100.00;98649.09;106835;1275;25306;-65
2023/04/02 01:33:57;;;;;;;14.20;10.20;;;;;;;8.82;100.00;98650.55;107079;1275;24203;-65
2023/04/02 01:36:48;;;;;;;15.40;11.00;;;;;;;8.83;100.00;98651.28;106602;1275;26665;-64
2023/04/02 01:39:28;;;;;;;13.00;10.00;;;;;;;8.83;100.00;98653.45;106884;1275;25392;-65
2023/04/02 01:42:20;;;;;;;13.30;9.30;;;;;;;8.81;100.00;98651.44;106675;1275;25454;-65
2023/04/02 01:44:52;;;;;;;13.00;9.50;;;;;;;8.80;100.00;98654.63;106855;1275;25334;-65
2023/04/02 01:47:24;;;;;;;14.70;10.00;;;;;;;8.79;100.00;98657.83;106735;1275;23860;-65
2023/04/02 01:49:59;;;;;;;13.70;9.30;;;;;;;8.79;100.00;98658.65;106937;1275;25312;-65
2023/04/02 01:52:37;;;;;;;13.10;10.50;;;;;;;8.78;100.00;98657.69;106695;1275;25527;-65
2023/04/02 01:55:07;;;;;;;12.50;9.90;;;;;;;8.77;100.00;98657.76;106818;1260;22749;-65
2023/04/02 01:57:37;;;;;;;13.50;9.50;;;;;;;8.76;100.00;98657.16;106954;1275;22508;-65
2023/04/02 02:00:13;;;;;;;13.70;10.40;;;;;;;8.74;100.00;98655.45;106775;1275;22919;-65
2023/04/02 02:02:45;;;;;;;13.00;9.50;;;;;;;8.73;100.00;98654.38;106915;1275;22997;-65
2023/04/02 02:05:15;;;;;;;14.00;9.40;;;;;;;8.72;100.00;98653.77;106675;1276;22532;-66
2023/04/02 02:07:45;;;;;;;13.80;10.50;;;;;;;8.72;100.00;98653.98;106688;1276;22644;-65
2023/04/02 02:10:17;;;;;;;12.10;9.80;;;;;;;8.73;100.00;98654.75;106493;1276;25360;-65
2023/04/02 02:12:46;;;;;;;15.70;11.10;;;;;;;8.73;100.00;98653.44;106648;1276;22853;-65
2023/04/02 02:15:17;;;;;;;14.70;10.10;;;;;;;8.72;100.00;98651.83;106727;1276;25467;-65
2023/04/02 02:17:47;;;;;;;13.10;9.70;;;;;;;8.71;100.00;98652.54;106714;1276;25338;-66
2023/04/02 02:20:16;;;;;;;15.80;11.30;;;;;;;8.72;100.00;98653.94;106625;1276;25319;-65
2023/04/02 02:22:49;;;;;;;13.50;9.80;;;;;;;8.74;100.00;98655.23;106388;1276;26475;-66
2023/04/02 02:25:20;;;;;;;14.20;10.20;;;;;;;8.74;100.00;98655.73;110338;1276;22201;-66
2023/04/02 02:28:04;;;;;;;15.70;9.90;;;;;;;8.75;100.00;98657.66;110331;1276;22285;-67
2023/04/02 02:31:18;;;;;;;13.30;10.00;;;;;;;8.78;100.00;98660.35;110311;1276;22547;-66
2023/04/02 02:33:51;;;;;;;13.50;10.50;;;;;;;8.77;100.00;98661.12;109848;1284;23134;-66
2023/04/02 02:36:34;;;;;;;14.70;10.40;;;;;;;8.76;100.00;98659.44;109714;1284;22201;-66
2023/04/02 02:39:15;;;;;;;13.50;10.00;;;;;;;8.77;100.00;98660.09;110046;1276;22213;-66
2023/04/02 02:41:51;;;;;;;15.10;9.80;;;;;;;8.77;100.00;98657.27;110160;1276;22230;-66
2023/04/02 02:44:23;;;;;;;13.50;9.70;;;;;;;8.78;100.00;98657.42;110277;1276;22480;-66
2023/04/02 02:46:54;;;;;;;13.40;9.90;;;;;;;8.79;100.00;98657.52;110288;1276;22174;-66
2023/04/02 02:49:30;;;;;;;14.00;10.10;;;;;;;8.80;100.00;98661.84;108083;1276;22571;-66
2023/04/02 02:52:16;;;;;;;14.60;10.30;;;;;;;8.80;100.00;98663.64;106525;1276;25331;-65
2023/04/02 02:54:57;;;;;;;14.70;10.50;;;;;;;8.79;100.00;98662.56;106589;1276;25325;-65
2023/04/02 02:57:29;;;;;;;12.90;9.70;;;;;;;8.78;100.00;98660.47;106506;1276;23895;-65
2023/04/02 02:59:59;;;;;;;14.60;10.00;;;;;;;8.78;100.00;98661.93;106601;1276;24724;-65
2023/04/02 03:02:28;;;;;;;13.40;9.50;;;;;;;8.77;100.00;98658.89;106592;1276;25389;-65
2023/04/02 03:04:58;;;;;;;15.00;9.60;;;;;;;8.75;100.00;98663.48;106536;1276;22536;-65
2023/04/02 03:07:26;;;;;;;14.20;9.70;;;;;;;8.72;100.00;98664.25;106637;1276;25321;-65
2023/04/02 03:10:26;;;;;;;15.20;10.20;;;;;;;8.69;100.00;98665.53;106766;1276;25420;-65
2023/04/02 03:12:56;;;;;;;16.00;10.50;;;;;;;8.66;100.00;98662.52;106508;1276;25444;-65
2023/04/02 03:15:32;;;;;;;12.20;9.40;;;;;;;8.64;100.00;98669.71;106761;1276;22516;-65
2023/04/02 03:18:18;;;;;;;14.50;10.30;;;;;;;8.62;100.00;98671.13;106681;1276;22527;-65
2023/04/02 03:20:56;;;;;;;15.00;9.80;;;;;;;8.60;100.00;98674.95;106572;1276;25544;-65
2023/04/02 03:23:36;;;;;;;13.80;9.60;;;;;;;8.58;100.00;98675.17;106795;1276;22551;-65
2023/04/02 03:26:18;;;;;;;14.30;9.70;;;;;;;8.59;100.00;98679.73;106738;1276;25025;-66
2023/04/02 03:28:55;;;;;;;13.70;9.70;;;;;;;8.60;100.00;98680.10;106471;1276;23785;-66
2023/04/02 03:31:32;;;;;;;12.40;9.70;;;;;;;8.60;100.00;98682.80;107221;1276;22560;-66
2023/04/02 03:34:10;;;;;;;12.30;9.40;;;;;;;8.63;100.00;98682.63;107206;1276;22525;-67
2023/04/02 03:36:45;;;;;;;13.20;9.20;;;;;;;8.63;100.00;98686.38;106750;1276;26538;-67
2023/04/02 03:39:47;;;;;;;12.60;8.80;;;;;;;8.62;100.00;98689.73;107164;1276;22567;-66
2023/04/02 03:42:27;;;;;;;11.90;8.80;;;;;;;8.60;100.00;98691.88;106923;1276;22546;-67
2023/04/02 03:45:17;;;;;;;11.00;8.90;;;;;;;8.59;100.00;98693.34;106878;1276;25331;-66
2023/04/02 03:47:51;;;;;;;12.60;8.60;;;;;;;8.61;100.00;98693.77;107096;1276;25316;-66
2023/04/02 03:50:24;;;;;;;12.10;9.30;;;;;;;8.60;100.00;98699.03;107064;1276;22520;-67
2023/04/02 03:52:54;;;;;;;12.40;8.60;;;;;;;8.61;100.00;98699.23;110391;1276;22359;-67
2023/04/02 03:55:30;;;;;;;10.00;7.80;;;;;;;8.63;100.00;98701.89;110217;1276;22193;-67
2023/04/02 03:58:02;;;;;;;10.60;8.30;;;;;;;8.65;100.00;98706.60;110318;1276;22072;-67
2023/04/02 04:00:44;;;;;;;14.10;9.20;;;;;;;8.65;100.00;98707.13;110095;1276;22347;-67
2023/04/02 04:03:15;;;;;;;10.60;8.50;;;;;;;8.67;100.00;98708.64;110233;1276;22257;-67
2023/04/02 04:05:57;;;;;;;12.00;8.40;;;;;;;8.69;100.00;98708.98;110337;1276;22182;-67
2023/04/02 04:08:36;;;;;;;10.80;8.00;;;;;;;8.71;100.00;98713.00;110144;1276;22221;-68
2023/04/02 04:11:08;;;;;;;11.40;8.60;;;;;;;8.72;100.00;98712.06;110225;1276;22273;-67
2023/04/02 04:13:44;;;;;;;13.20;7.90;;;;;;;8.73;100.00;98712.76;108420;1276;22520;-66
2023/04/02 04:16:22;;;;;;;10.20;7.90;;;;;;;8.75;100.00;98711.12;107127;1276;26003;-66
2023/04/02 04:19:02;;;;;;;;;;;;;;;8.76;100.00;98714.41;107112;1276;25520;-66
2023/04/02 04:21:38;;;;;;;11.30;8.30;;;;;;;8.71;100.00;98712.45;107159;1276;22528;-66
2023/04/02 04:24:20;;;;;;;11.20;8.20;;;;;;;8.70;100.00;98716.74;107154;1276;25309;-66
2023/04/02 04:27:08;;;;;;;14.10;9.10;;;;;;;8.74;100.00;98720.41;107241;1276;22520;-66
2023/04/02 04:29:52;;;;;;;10.70;8.50;;;;;;;8.76;100.00;98721.31;107367;1276;24201;-66
2023/04/02 04:32:26;;;;;;;11.00;8.70;;;;;;;8.74;100.00;98721.55;107130;1276;22637;-66
2023/04/02 04:35:21;;;;;;;12.50;9.10;;;;;;;8.75;100.00;98725.29;107202;1276;25471;-66
2023/04/02 04:37:57;;;;;;;12.70;8.90;;;;;;;8.75;100.00;98726.31;106978;1276;25343;-66
2023/04/02 04:40:31;;;;;;;13.50;9.60;;;;;;;8.76;100.00;98727.67;107258;1276;23318;-66
2023/04/02 04:43:02;;;;;;;12.90;10.30;;;;;;;8.78;100.00;98730.84;107168;1276;24280;-66
2023/04/02 04:45:55;;;;;;;12.50;10.30;;;;;;;8.79;100.00;98731.32;107081;1276;22520;-66
2023/04/02 04:48:33;;;;;;;12.40;10.20;;;;;;;8.82;100.00;98734.55;107083;1276;25256;-66
2023/04/02 04:51:08;;;;;;;17.00;10.30;;;;;;;8.84;100.00;98734.48;107095;1276;26126;-66
2023/04/02 04:53:47;;;;;;;12.90;10.50;;;;;;;8.85;100.00;98732.81;107163;1276;26618;-66
2023/04/02 04:56:21;;;;;;;14.30;11.00;;;;;;;8.85;100.00;98732.64;107303;1276;22594;-66
2023/04/02 04:59:04;;;;;;;13.90;11.10;;;;;;;8.86;100.00;98732.23;107197;1276;25335;-66
2023/04/02 05:01:44;;;;;;;13.80;10.10;;;;;;;8.85;100.00;98735.46;107142;1276;25368;-66
2023/04/02 05:04:24;;;;;;;11.50;9.40;;;;;;;8.85;100.00;98741.65;107295;1275;25395;-67
2023/04/02 05:07:15;;;;;;;11.30;9.90;;;;;;;8.86;100.00;98740.44;107134;1275;23264;-67
2023/04/02 05:09:54;;;;;;;12.10;9.50;;;;;;;8.82;100.00;98743.08;107353;1275;26760;-66
2023/04/02 05:12:44;;;;;;;13.60;9.70;;;;;;;8.84;100.00;98743.61;107176;1275;25353;-66
2023/04/02 05:15:25;;;;;;;12.20;9.50;;;;;;;8.87;100.00;98745.75;107273;1275;24372;-66
2023/04/02 05:18:10;;;;;;;10.40;9.30;;;;;;;8.91;100.00;98742.20;107176;1275;25331;-66
2023/04/02 05:20:54;;;;;;;13.70;10.90;;;;;;;8.91;100.00;98745.29;107437;1275;25333;-66
2023/04/02 05:23:26;;;;;;;13.00;10.30;;;;;;;8.93;100.00;98747.16;107277;1275;25346;-65
2023/04/02 05:26:23;;;;;;;13.90;9.60;;;;;;;8.96;100.00;98748.92;106622;1275;25603;-65
2023/04/02 05:29:15;;;;;;;14.20;10.20;;;;;;;9.01;100.00;98746.38;106562;1275;24371;-65
2023/04/02 05:31:45;;;;;;;13.90;10.20;;;;;;;9.03;100.00;98744.64;106855;1275;25312;-65
2023/04/02 05:34:14;;;;;;;12.50;9.40;;;;;;;9.06;100.00;98749.23;106739;1275;22533;-65
2023/04/02 05:36:45;;;;;;;12.60;9.40;;;;;;;9.07;100.00;98750.09;106603;1275;25468;-65
2023/04/02 05:39:16;;;;;;;14.60;11.20;;;;;;;9.06;100.00;98754.44;106649;1275;24200;-65
2023/04/02 05:42:07;;;;;;;19.30;16.50;;;;;;;9.04;100.00;98753.30;106712;1274;24249;-65
2023/04/02 05:45:12;;;;;;;13.20;11.00;;;;;;;9.11;100.00;98758.89;106927;1275;25265;-65
2023/04/02 05:47:42;;;;;;;12.40;10.40;;;;;;;9.18;100.00;98757.91;106844;1275;22541;-65
2023/04/02 05:50:23;;;;;;;13.90;11.40;;;;;;;9.21;100.00;98757.50;106624;1275;22529;-64
2023/04/02 05:52:57;;;;;;;14.10;11.70;;;;;;;9.20;100.00;98764.73;110497;1275;22207;-66
2023/04/02 05:55:27;;;;;;;13.30;10.70;;;;;;;9.18;100.00;98765.77;110390;1275;22182;-65
2023/04/02 05:58:12;;;;;;;14.20;10.90;;;;;;;9.19;100.00;98770.48;110392;1275;22349;-65
2023/04/02 06:01:24;;;;;;;14.00;10.20;;;;;;;9.24;100.00;98770.94;110349;1275;22841;-66
2023/04/02 06:03:58;;;;;;;12.30;9.90;;;;;;;9.26;100.00;98769.55;110342;1275;22267;-65
2023/04/02 06:06:41;;;;;;;12.90;9.60;;;;;;;9.27;100.00;98773.35;110267;1275;22172;-65
2023/04/02 06:09:26;;;;;;;10.80;8.50;;;;;;;9.29;100.00;98776.15;110528;1275;23247;-65
2023/04/02 06:12:19;;;;;;;12.30;9.40;;;;;;;9.30;100.00;98778.81;110391;1275;22387;-65
2023/04/02 06:14:48;;;;;;;17.20;11.90;;;;;;;9.24;100.00;98780.98;108000;1275;22548;-65
2023/04/02 06:17:17;;;;;;;23.10;20.80;;;;;;;9.20;100.00;98777.39;106892;1275;25321;-65
2023/04/02 06:19:47;;;;;;;11.10;9.70;;;;;;;9.21;100.00;98781.83;106642;1275;24217;-64
2023/04/02 06:22:21;;;;;;;9.20;7.60;;;;;;;9.22;100.00;98785.72;106821;1275;25328;-64
2023/04/02 06:25:08;;;;;;;10.30;7.90;;;;;;;9.20;100.00;98786.35;106590;1275;26047;-64
2023/04/02 06:27:41;;;;;;;9.60;7.70;;;;;;;9.17;100.00;98787.95;106825;1275;22513;-63
2023/04/02 06:30:16;;;;;;;9.30;7.70;;;;;;;9.15;100.00;98789.91;106673;1275;25339;-64
2023/04/02 06:32:46;;;;;;;10.00;8.10;;;;;;;9.15;100.00;98790.45;106671;1275;25386;-65
2023/04/02 06:35:16;;;;;;;11.20;9.30;;;;;;;9.12;100.00;98791.63;106837;1275;23869;-64
2023/04/02 06:37:48;;;;;;;11.50;9.00;;;;;;;9.08;100.00;98791.12;106963;1275;25347;-64
2023/04/02 06:40:30;;;;;;;9.90;7.90;;;;;;;9.09;100.00;98793.88;106788;1275;22533;-65
2023/04/02 06:43:34;;;;;;;9.40;7.80;;;;;;;9.06;100.00;98792.55;106629;1275;24307;-65
2023/04/02 06:46:36;;;;;;;11.10;8.60;;;;;;;9.06;100.00;98795.49;107286;1275;23359;-65
2023/04/02 06:49:14;;;;;;;9.20;7.50;;;;;;;9.08;100.00;98801.00;107346;1275;25223;-65
2023/04/02 06:51:43;;;;;;;10.60;8.50;;;;;;;9.09;100.00;98801.81;107418;1275;22628;-65
2023/04/02 06:54:15;;;;;;;11.30;8.30;;;;;;;9.09;100.00;98805.45;107163;1275;25305;-65
2023/04/02 06:56:47;;;;;;;11.50;8.10;;;;;;;9.10;100.00;98804.30;107361;1275;25315;-65
2023/04/02 06:59:22;;;;;;;8.60;7.10;;;;;;;9.12;100.00;98804.17;107371;1275;23012;-65
2023/04/02 07:01:55;;;;;;;8.80;7.90;;;;;;;9.15;100.00;98807.84;107402;1275;25213;-65
2023/04/02 07:04:24;;;;;;;10.60;7.50;;;;;;;9.19;100.00;98809.70;107349;1275;22571;-66
2023/04/02 07:06:54;;;;;;;8.70;7.40;;;;;;;9.15;100.00;98811.53;107302;1275;22650;-66
2023/04/02 07:09:25;;;;;;;9.50;7.00;;;;;;;9.13;100.00;98809.70;107306;1275;22533;-65
2023/04/02 07:11:58;;;;;;;9.60;7.20;;;;;;;9.13;100.00;98811.92;107202;1275;25281;-65
2023/04/02 07:14:26;;;;;;;10.00;7.10;;;;;;;9.17;100.00;98813.41;107426;1275;23259;-65
2023/04/02 07:16:57;;;;;;;8.80;6.80;;;;;;;9.23;100.00;98821.83;110496;1275;23162;-65
2023/04/02 07:19:25;;;;;;;7.50;6.50;;;;;;;9.29;100.00;98820.80;110511;1275;22202;-66
2023/04/02 07:21:57;;;;;;;8.60;7.30;;;;;;;9.32;100.00;98824.02;110494;1275;22208;-64
2023/04/02 07:24:31;;;;;;;8.80;6.40;;;;;;;9.27;100.00;98824.58;110355;1275;22991;-64
2023/04/02 07:27:05;;;;;;;9.00;7.00;;;;;;;9.27;100.00;98827.35;110489;1275;22192;-63
2023/04/02 07:29:33;;;;;;;7.20;6.00;;;;;;;9.28;100.00;98827.59;110486;1275;22201;-64
2023/04/02 07:32:02;;;;;;;7.20;6.10;;;;;;;9.31;100.00;98827.68;110506;1275;22831;-65
2023/04/02 07:34:31;;;;;;;8.10;6.40;;;;;;;9.33;100.00;98829.13;110507;1275;22388;-64
2023/04/02 07:37:01;;;;;;;7.30;6.40;;;;;;;9.31;100.00;98829.96;110541;1275;22192;-64
2023/04/02 07:39:29;;;;;;;8.10;7.00;;;;;;;9.29;100.00;98834.42;107609;1275;22532;-65
2023/04/02 07:41:59;;;;;;;9.10;6.80;;;;;;;9.29;100.00;98834.10;106670;1275;25322;-65
2023/04/02 07:44:28;;;;;;;7.70;6.60;;;;;;;9.35;100.00;98835.24;106954;1275;25469;-64
2023/04/02 07:46:58;;;;;;;9.10;7.40;;;;;;;9.35;100.00;98833.15;106910;1275;26499;-64
2023/04/02 07:49:28;;;;;;;8.60;7.30;;;;;;;9.38;100.00;98835.56;106733;1275;25495;-65
2023/04/02 07:51:57;;;;;;;8.90;7.60;;;;;;;9.45;100.00;98834.34;106744;1275;25477;-65
2023/04/02 07:54:26;;;;;;;8.10;7.10;;;;;;;9.55;100.00;98840.55;106866;1275;25349;-65
2023/04/02 07:56:54;;;;;;;10.10;7.90;;;;;;;9.62;100.00;98841.52;107088;1275;25332;-66
2023/04/02 07:59:23;;;;;;;10.20;7.80;;;;;;;9.64;100.00;98843.67;106903;1275;22558;-65
2023/04/02 08:01:53;;;;;;;8.80;7.30;;;;;;;9.64;100.00;98845.29;106825;1275;25452;-65
2023/04/02 08:04:22;;;;;;;10.20;7.40;;;;;;;9.64;100.00;98843.83;107548;1275;22967;-66
2023/04/02 08:06:51;;;;;;;9.80;8.20;;;;;;;9.68;100.00;98844.29;107379;1275;25402;-65
2023/04/02 08:09:20;;;;;;;9.50;7.70;;;;;;;9.74;100.00;98843.40;107255;1275;22555;-66
2023/04/02 08:11:53;;;;;;;11.50;9.60;;;;;;;9.82;100.00;98841.30;107273;1275;25337;-66
2023/04/02 08:14:21;;;;;;;10.40;8.90;;;;;;;9.82;100.00;98845.32;107394;1275;25490;-66
2023/04/02 08:16:51;;;;;;;12.30;9.80;;;;;;;9.81;100.00;98848.23;107342;1274;22523;-65
2023/04/02 08:19:24;;;;;;;9.30;8.30;;;;;;;9.81;100.00;98848.77;107412;1275;25312;-66
2023/04/02 08:21:52;;;;;;;9.40;6.90;;;;;;;9.77;100.00;98846.15;107450;1275;22520;-65
2023/04/02 08:24:21;;;;;;;7.50;6.30;;;;;;;9.76;100.00;98851.37;107468;1275;22568;-65
2023/04/02 08:26:52;;;;;;;8.10;7.20;;;;;;;9.76;100.00;98847.52;106810;1275;25401;-65
2023/04/02 08:29:20;;;;;;;10.80;8.10;;;;;;;9.77;100.00;98847.78;106807;1275;25542;-65
2023/04/02 08:31:50;;;;;;;22.50;17.60;;;;;;;9.79;100.00;98849.01;106881;1275;24324;-65
2023/04/02 08:34:18;;;;;;;23.10;19.90;;;;;;;9.87;100.00;98849.73;106673;1275;27114;-65
2023/04/02 08:36:47;;;;;;;10.70;9.30;;;;;;;9.89;100.00;98856.06;106818;1275;25364;-65
2023/04/02 08:39:15;;;;;;;9.00;7.60;;;;;;;9.87;100.00;98858.60;106685;1275;27545;-64
2023/04/02 08:41:48;;;;;;;9.30;7.30;;;;;;;9.84;100.00;98856.41;106831;1275;25380;-64
2023/04/02 08:44:38;;;;;;;9.20;7.90;;;;;;;9.81;100.00;98858.11;106913;1275;25271;-65
2023/04/02 08:47:07;;;;;;;8.90;7.20;;;;;;;9.79;100.00;98862.75;106795;1275;25357;-65
2023/04/02 08:49:36;;;;;;;9.40;7.00;;;;;;;9.74;100.00;98864.06;106874;1275;23901;-64
2023/04/02 08:52:22;;;;;;;9.20;7.10;;;;;;;9.69;100.00;98867.59;106751;1275;25290;-65
2023/04/02 08:54:50;;;;;;;7.40;6.10;;;;;;;9.70;100.00;98868.06;106632;1275;22513;-65
2023/04/02 08:57:35;;;;;;;7.40;6.10;;;;;;;9.70;100.00;98870.84;106888;1275;22604;-66
2023/04/02 09:00:09;;;;;;;7.70;6.60;;;;;;;9.72;100.00;98873.16;106874;1275;25804;-65
2023/04/02 09:02:45;;;;;;;9.60;7.10;;;;;;;9.75;100.00;98870.89;107202;1275;24180;-65
2023/04/02 09:05:16;;;;;;;8.10;7.10;;;;;;;9.77;100.00;98875.56;107480;1275;22524;-66
2023/04/02 09:07:46;;;;;;;8.40;6.80;;;;;;;9.79;100.00;98872.33;107351;1271;25271;-65
2023/04/02 09:10:15;;;;;;;8.50;7.20;;;;;;;9.81;100.00;98878.07;107122;1273;23355;-64
2023/04/02 09:12:51;;;;;;;6.70;5.80;;;;;;;9.86;100.00;98879.27;107338;1272;25456;-64
2023/04/02 09:15:32;;;;;;;9.00;6.40;;;;;;;9.85;100.00;98877.98;110441;1275;23419;-65
2023/04/02 09:18:17;;;;;;;8.80;7.10;;;;;;;9.78;100.00;98876.47;110502;1276;22215;-66
2023/04/02 09:20:49;;;;;;;8.20;7.00;;;;;;;9.81;100.00;98881.82;110503;1275;22459;-66
2023/04/02 09:23:22;;;;;;;9.00;7.00;;;;;;;9.83;100.00;98879.47;110388;1269;22687;-66
2023/04/02 09:25:51;;;;;;;9.10;6.80;;;;;;;9.88;100.00;98883.27;110301;1275;23368;-66
2023/04/02 09:28:31;;;;;;;10.20;7.00;;;;;;;9.94;100.00;98885.11;110450;1275;22232;-66
2023/04/02 09:31:17;;;;;;;9.90;7.40;;;;;;;9.99;100.00;98885.82;110455;1276;22283;-66
2023/04/02 09:33:47;;;;;;;8.80;6.60;;;;;;;10.03;100.00;98889.10;110327;1276;22282;-66
2023/04/02 09:36:27;;;;;;;7.20;6.30;;;;;;;10.00;100.00;98889.02;110427;1275;22891;-66
2023/04/02 09:39:29;;;;;;;8.80;6.90;;;;;;;10.04;100.00;98885.66;110470;1276;22278;-66
2023/04/02 09:41:57;;;;;;;6.90;5.80;;;;;;;10.06;100.00;98888.19;110390;1276;22198;-66
2023/04/02 09:44:33;;;;;;;9.20;6.70;;;;;;;10.13;100.00;98890.79;110395;1276;22480;-66
2023/04/02 09:47:06;;;;;;;7.10;5.90;;;;;;;10.24;100.00;98893.02;110314;1275;22227;-66
2023/04/02 09:49:35;;;;;;;7.30;6.50;;;;;;;10.38;100.00;98897.27;108273;1269;22578;-66
2023/04/02 09:52:26;;;;;;;8.30;6.50;;;;;;;10.48;100.00;98897.47;107364;1275;22520;-66
2023/04/02 09:55:27;;;;;;;7.60;6.70;;;;;;;10.55;100.00;98900.16;107460;1275;22672;-65
2023/04/02 09:58:14;;;;;;;8.90;6.20;;;;;;;10.63;100.00;98903.26;107466;1275;25346;-67
2023/04/02 10:00:49;;;;;;;7.20;6.40;;;;;;;10.68;100.00;98903.20;107675;1276;25316;-65
2023/04/02 10:03:26;;;;;;;8.10;6.40;;;;;;;10.70;100.00;98900.79;107751;1275;25347;-67
2023/04/02 10:06:12;;;;;;;9.70;7.10;;;;;;;10.65;100.00;98899.64;107788;1270;22523;-66
2023/04/02 10:08:43;;;;;;;8.70;6.80;;;;;;;10.59;100.00;98898.30;107922;1273;22535;-65
2023/04/02 10:11:18;;;;;;;7.80;6.40;;;;;;;10.57;100.00;98901.33;107724;1275;25367;-66
2023/04/02 10:14:02;;;;;;;8.80;6.90;;;;;;;10.55;100.00;98901.89;107496;1276;22638;-66
2023/04/02 10:16:34;;;;;;;8.90;6.80;;;;;;;10.52;100.00;98903.13;107551;1275;22554;-67
2023/04/02 10:19:27;;;;;;;7.70;6.60;;;;;;;10.43;100.00;98897.86;110451;1276;22340;-66
2023/04/02 10:22:02;;;;;;;9.60;6.40;;;;;;;10.41;100.00;98904.64;110306;1275;22755;-67
2023/04/02 10:24:31;;;;;;;9.00;6.90;;;;;;;10.39;100.00;98907.42;110305;1276;22351;-65
2023/04/02 10:27:21;;;;;;;7.80;6.50;;;;;;;10.31;100.00;98906.22;109618;1276;22974;-64
2023/04/02 10:30:09;;;;;;;7.60;6.40;;;;;;;10.29;100.00;98911.63;106618;1275;25366;-64
2023/04/02 10:33:06;;;;;;;11.10;7.50;;;;;;;10.21;100.00;98909.53;110440;1276;22934;-64
2023/04/02 10:35:40;;;;;;;7.90;7.00;;;;;;;10.17;100.00;98909.80;110477;1275;22305;-65
2023/04/02 10:38:13;;;;;;;7.90;7.00;;;;;;;10.11;100.00;98912.51;110365;1275;22206;-65
2023/04/02 10:41:01;;;;;;;9.10;7.60;;;;;;;10.04;100.00;98917.96;110459;1275;22281;-65
2023/04/02 10:43:50;;;;;;;8.40;7.50;;;;;;;9.99;100.00;98918.00;110481;1276;22254;-65
2023/04/02 10:46:31;;;;;;;8.70;7.40;;;;;;;9.94;100.00;98918.49;110277;1276;22973;-65
2023/04/02 10:49:14;;;;;;;8.90;8.00;;;;;;;9.85;100.00;98919.29;110274;1275;22920;-65
2023/04/02 10:51:45;;;;;;;9.40;8.30;;;;;;;9.78;100.00;98920.66;110490;1276;22977;-65
2023/04/02 10:54:23;;;;;;;10.30;9.20;;;;;;;9.70;100.00;98916.77;110377;1275;22455;-65
2023/04/02 10:56:54;;;;;;;11.30;9.00;;;;;;;9.65;100.00;98919.27;109264;1275;22705;-64
2023/04/02 10:59:23;;;;;;;11.90;9.30;;;;;;;9.67;100.00;98921.86;107111;1275;22783;-64
2023/04/02 11:01:52;;;;;;;14.00;10.20;;;;;;;9.69;100.00;98918.46;106784;1275;25356;-64
2023/04/02 11:04:24;;;;;;;11.30;8.30;;;;;;;9.67;100.00;98923.54;106892;1275;22527;-65
2023/04/02 11:06:59;;;;;;;9.10;8.10;;;;;;;9.64;100.00;98926.01;106992;1270;22631;-64
2023/04/02 11:09:44;;;;;;;9.30;8.30;;;;;;;9.61;100.00;98928.21;107407;1276;25348;-65
2023/04/02 11:12:35;;;;;;;9.80;8.80;;;;;;;9.54;100.00;98928.31;107204;1275;25626;-65
2023/04/02 11:15:17;;;;;;;9.90;8.20;;;;;;;9.53;100.00;98930.88;107249;1276;25334;-65
2023/04/02 11:17:45;;;;;;;9.60;7.40;;;;;;;9.52;100.00;98934.98;107357;1275;23496;-64
2023/04/02 11:23:10;;;;;;;9.90;8.30;;;;;;;9.44;100.00;98944.70;103970;1313;544986;-65
2023/04/02 11:25:40;;;;;;;10.30;8.10;;;;;;;9.38;100.00;98935.67;106431;1288;22600;-65
2023/04/02 11:28:29;;;;;;;8.80;7.90;;;;;;;9.39;100.00;98939.79;106208;1288;25366;-65
2023/04/02 11:30:57;;;;;;;9.70;7.90;;;;;;;9.41;100.00;98939.89;106444;1288;24287;-65
2023/04/02 11:33:29;;;;;;;9.70;8.20;;;;;;;9.41;100.00;98942.43;107449;1277;25509;-65
2023/04/02 11:36:48;;;;;;;9.60;8.50;;;;;;;9.43;100.00;98940.84;107210;1275;228102;-65
2023/04/02 11:39:45;;;;;;;12.20;9.50;;;;;;;9.42;100.00;98941.90;107424;1275;22520;-65
2023/04/02 11:42:28;;;;;;;10.40;9.30;;;;;;;9.44;100.00;98943.29;107669;1267;22544;-65
2023/04/02 11:45:18;;;;;;;11.70;10.10;;;;;;;9.48;100.00;98940.39;107702;1270;22644;-66
2023/04/02 11:48:00;;;;;;;11.80;10.40;;;;;;;9.52;100.00;98946.38;110414;1272;22938;-66
2023/04/02 11:50:30;;;;;;;12.30;10.20;;;;;;;9.56;100.00;98950.46;110419;1275;22413;-64
2023/04/02 11:53:15;;;;;;;13.20;11.80;;;;;;;9.57;100.00;98950.90;109907;1270;26477;-63
2023/04/02 11:55:46;;;;;;;15.10;12.20;;;;;;;9.50;100.00;98950.96;107363;1275;22725;-64
2023/04/02 11:58:31;;;;;;;16.00;12.80;;;;;;;9.49;100.00;98951.67;107451;1270;22520;-65
2023/04/02 12:01:08;;;;;;;15.40;12.80;;;;;;;9.53;100.00;98948.55;106539;1275;25224;-65
2023/04/02 12:03:37;;;;;;;16.20;13.20;;;;;;;9.51;100.00;98952.63;107523;1275;23210;-65
2023/04/02 12:06:28;;;;;;;17.00;12.90;;;;;;;9.50;100.00;98952.20;107564;1254;23369;-65